Time;durP1;ratioP1;P1;durP2;ratioP2;P2;SDS_P1;SDS_P2;PMS_P1;PMS_P2;Temp;Humidity;BMP_temperature;BMP_pressure;BME280_temperature;BME280_humidity;BME280_pressure;Samples;Min_cycle;Max_cycle;Signal;HPM_P1;HPM_P2
2023/03/15 00:00:11;;;;;;;36.00;3.43;;;;;;;9.47;nan;100399.53;4998537;28;20473;-72
2023/03/15 00:02:37;;;;;;;50.13;3.45;;;;;;;9.51;nan;100399.53;4996016;28;20050;-72
2023/03/15 00:05:03;;;;;;;38.10;3.30;;;;;;;9.52;nan;100396.03;4996830;28;20037;-72
2023/03/15 00:07:30;;;;;;;34.67;2.80;;;;;;;9.52;nan;100398.66;4996953;28;20034;-72
2023/03/15 00:09:55;;;;;;;44.88;3.03;;;;;;;9.51;nan;100394.28;4996589;28;20023;-72
2023/03/15 00:12:23;;;;;;;36.58;3.20;;;;;;;9.51;nan;100394.28;4996551;28;20114;-72
2023/03/15 00:14:50;;;;;;;38.43;2.73;;;;;;;9.51;nan;100394.28;5000926;28;20026;-72
2023/03/15 00:17:15;;;;;;;32.25;2.95;;;;;;;9.47;nan;100394.28;4995598;28;20069;-72
2023/03/15 00:19:41;;;;;;;42.00;3.53;;;;;;;9.45;nan;100389.91;4996720;28;20022;-72
2023/03/15 00:22:07;;;;;;;36.10;3.70;;;;;;;9.41;nan;100383.75;4995640;28;20033;-72
2023/03/15 00:24:32;;;;;;;30.65;3.08;;;;;;;9.40;nan;100387.25;4996431;28;20098;-72
2023/03/15 00:26:58;;;;;;;39.73;2.87;;;;;;;9.36;nan;100385.50;4997935;28;20026;-72
2023/03/15 00:29:23;;;;;;;31.10;3.05;;;;;;;9.36;nan;100389.84;5000908;28;20028;-72
2023/03/15 00:31:50;;;;;;;42.33;4.10;;;;;;;9.34;nan;100374.09;4999899;28;20045;-72
2023/03/15 00:34:17;;;;;;;34.17;2.88;;;;;;;9.33;nan;100374.97;4987271;28;20058;-72
2023/03/15 00:36:43;;;;;;;38.95;4.63;;;;;;;9.32;nan;100375.84;4981282;28;20038;-72
2023/03/15 00:39:09;;;;;;;36.27;2.80;;;;;;;9.31;nan;100369.69;4993587;28;20417;-72
2023/03/15 00:41:34;;;;;;;34.40;2.85;;;;;;;9.30;nan;100361.84;5002802;28;20105;-72
2023/03/15 00:44:00;;;;;;;38.70;2.90;;;;;;;9.29;nan;100362.72;4999196;28;20030;-72
2023/03/15 00:46:25;;;;;;;26.80;2.60;;;;;;;9.27;nan;100360.06;5000054;28;20041;-72
2023/03/15 00:48:51;;;;;;;67.07;10.90;;;;;;;9.25;nan;100359.19;5000246;28;20026;-72
2023/03/15 00:51:20;;;;;;;52.20;5.50;;;;;;;9.23;nan;100354.78;5000637;28;20522;-72
2023/03/15 00:53:47;;;;;;;28.50;3.25;;;;;;;9.22;nan;100360.91;5000139;28;20483;-72
2023/03/15 00:56:18;;;;;;;33.70;2.70;;;;;;;9.18;nan;100355.66;4998703;28;20037;-72
2023/03/15 00:58:44;;;;;;;45.38;4.90;;;;;;;9.17;nan;100356.53;5003547;28;20042;-72
2023/03/15 01:01:22;;;;;;;36.10;3.55;;;;;;;9.14;nan;100353.00;5001938;28;20407;-72
2023/03/15 01:03:48;;;;;;;37.45;2.75;;;;;;;9.14;nan;100353.91;4997245;28;20498;-72
2023/03/15 01:06:20;;;;;;;28.70;2.97;;;;;;;9.10;nan;100357.38;5009876;28;20022;-72
2023/03/15 01:08:45;;;;;;;32.67;2.65;;;;;;;9.09;nan;100360.88;4999722;28;20509;-72
2023/03/15 01:11:14;;;;;;;40.35;3.10;;;;;;;9.09;nan;100354.75;5000297;28;20053;-72
2023/03/15 01:13:40;;;;;;;41.67;2.63;;;;;;;9.04;nan;100350.34;4998702;28;20030;-72
2023/03/15 01:16:06;;;;;;;28.67;2.50;;;;;;;9.02;nan;100352.09;5003682;28;20157;-72
2023/03/15 01:18:32;;;;;;;38.58;2.90;;;;;;;9.02;nan;100348.56;4999822;28;20054;-72
2023/03/15 01:20:58;;;;;;;44.67;3.20;;;;;;;9.01;nan;100352.06;5000116;28;20505;-72
2023/03/15 01:23:23;;;;;;;35.53;2.80;;;;;;;9.00;nan;100350.31;4999159;28;20026;-71
2023/03/15 01:25:49;;;;;;;32.67;2.80;;;;;;;8.99;nan;100343.31;4999954;28;20033;-72
2023/03/15 01:28:15;;;;;;;39.60;3.47;;;;;;;8.97;nan;100340.72;4994466;28;20037;-72
2023/03/15 01:30:48;;;;;;;39.45;3.03;;;;;;;8.95;nan;100342.44;4988757;28;20110;-71
2023/03/15 01:33:13;;;;;;;37.63;3.50;;;;;;;8.94;nan;100339.81;4999436;28;20034;-72
2023/03/15 01:35:39;;;;;;;30.63;3.00;;;;;;;8.94;nan;100337.19;4999743;28;20022;-72
2023/03/15 01:38:04;;;;;;;29.98;2.38;;;;;;;8.95;nan;100337.19;4999017;28;20022;-72
2023/03/15 01:40:30;;;;;;;24.63;2.83;;;;;;;8.96;nan;100332.81;5007358;28;20033;-72
2023/03/15 01:43:01;;;;;;;27.30;2.23;;;;;;;8.95;nan;100331.94;4999705;28;20056;-72
2023/03/15 01:45:58;;;;;;;49.05;6.75;;;;;;;8.92;nan;100336.31;4999261;28;20081;-72
2023/03/15 01:48:29;;;;;;;27.08;2.28;;;;;;;8.95;nan;100328.44;4999030;28;20026;-72
2023/03/15 01:50:56;;;;;;;32.65;2.42;;;;;;;8.96;nan;100332.81;4999262;28;20033;-72
2023/03/15 01:53:24;;;;;;;30.13;2.60;;;;;;;8.95;nan;100325.81;4999052;28;20033;-72
2023/03/15 01:55:52;;;;;;;25.42;2.08;;;;;;;8.95;nan;100320.53;4998985;28;20022;-72
2023/03/15 01:58:20;;;;;;;40.38;4.97;;;;;;;8.94;nan;100313.53;5003079;28;20034;-72
2023/03/15 02:00:45;;;;;;;32.58;2.42;;;;;;;8.93;nan;100310.06;5001499;28;20081;-72
2023/03/15 02:03:16;;;;;;;36.73;3.13;;;;;;;8.92;nan;100297.75;4993472;28;20046;-72
2023/03/15 02:05:47;;;;;;;38.10;5.55;;;;;;;8.90;nan;100303.03;4996837;28;20787;-72
2023/03/15 02:08:16;;;;;;;30.63;2.63;;;;;;;8.89;nan;100290.78;4998397;28;20034;-72
2023/03/15 02:10:45;;;;;;;42.67;4.70;;;;;;;8.89;nan;100296.03;4997750;28;20025;-72
2023/03/15 02:13:14;;;;;;;42.45;2.55;;;;;;;8.88;nan;100304.78;4998705;28;20034;-72
2023/03/15 02:15:45;;;;;;;28.77;2.13;;;;;;;8.88;nan;100310.03;5002584;28;20054;-72
2023/03/15 02:18:11;;;;;;;32.83;2.72;;;;;;;8.88;nan;100307.41;4998387;28;20027;-72
2023/03/15 02:21:02;;;;;;;41.28;6.97;;;;;;;8.86;nan;100301.28;4998842;28;20073;-72
2023/03/15 02:23:30;;;;;;;44.92;7.63;;;;;;;8.88;nan;100293.38;4997838;28;20388;-72
2023/03/15 02:26:05;;;;;;;35.35;3.65;;;;;;;8.82;nan;100294.25;4985883;28;20031;-72
2023/03/15 02:28:31;;;;;;;30.97;5.00;;;;;;;8.82;nan;100289.00;4979110;28;20033;-72
2023/03/15 02:30:57;;;;;;;33.90;2.50;;;;;;;8.79;nan;100294.22;4988860;28;20018;-72
2023/03/15 02:33:22;;;;;;;25.65;2.47;;;;;;;8.78;nan;100297.72;4998251;28;20502;-72
2023/03/15 02:35:48;;;;;;;31.60;2.50;;;;;;;8.74;nan;100296.84;4998593;28;20041;-72
2023/03/15 02:38:13;;;;;;;18.95;1.98;;;;;;;8.74;nan;100299.47;4997872;28;20024;-72
2023/03/15 02:40:39;;;;;;;26.57;2.10;;;;;;;8.70;nan;100300.34;5007605;28;20033;-72
2023/03/15 02:43:12;;;;;;;33.20;2.33;;;;;;;8.68;nan;100290.69;4998193;28;20029;-72
2023/03/15 02:45:38;;;;;;;29.30;2.40;;;;;;;8.68;nan;100286.34;4996987;28;20498;-74
2023/03/15 02:48:05;;;;;;;26.67;2.70;;;;;;;8.67;nan;100296.81;4997020;28;20491;-74
2023/03/15 02:50:31;;;;;;;22.00;2.35;;;;;;;8.64;nan;100294.19;4997090;28;20391;-73
2023/03/15 02:52:56;;;;;;;28.50;2.30;;;;;;;8.63;nan;100297.69;4996758;28;20031;-72
2023/03/15 02:55:22;;;;;;;33.03;2.20;;;;;;;8.63;nan;100287.19;4998304;28;20384;-73
2023/03/15 02:57:48;;;;;;;30.03;2.00;;;;;;;8.60;nan;100282.78;5002155;28;20042;-73
2023/03/15 03:00:14;;;;;;;24.08;2.42;;;;;;;8.57;nan;100288.91;4999022;28;20516;-72
2023/03/15 03:02:45;;;;;;;24.83;2.00;;;;;;;8.56;nan;100291.50;4997881;28;20113;-72
2023/03/15 03:05:13;;;;;;;36.47;2.50;;;;;;;8.58;nan;100290.66;4993814;28;20037;-73
2023/03/15 03:07:38;;;;;;;24.75;2.55;;;;;;;8.64;nan;100289.78;4996488;28;20036;-73
2023/03/15 03:10:05;;;;;;;24.13;1.98;;;;;;;8.72;nan;100292.44;4997638;28;20113;-72
2023/03/15 03:12:31;;;;;;;41.40;2.70;;;;;;;8.81;nan;100297.75;4998079;28;20030;-73
2023/03/15 03:14:57;;;;;;;27.15;1.80;;;;;;;8.89;nan;100293.41;5001726;28;20037;-74
2023/03/15 03:17:23;;;;;;;32.20;2.45;;;;;;;8.99;nan;100293.41;4997828;28;20471;-72
2023/03/15 03:19:48;;;;;;;25.93;1.87;;;;;;;9.06;nan;100289.97;4997655;28;20041;-72
2023/03/15 03:22:14;;;;;;;30.02;2.30;;;;;;;9.13;nan;100289.09;4990271;28;20030;-72
2023/03/15 03:24:44;;;;;;;27.90;1.87;;;;;;;9.21;nan;100283.84;4977996;28;20027;-71
2023/03/15 03:27:15;;;;;;;32.25;2.65;;;;;;;9.23;nan;100279.47;4976903;28;20041;-73
2023/03/15 03:29:41;;;;;;;21.50;1.90;;;;;;;9.22;nan;100277.72;4978729;28;20461;-73
2023/03/15 03:32:07;;;;;;;23.83;1.67;;;;;;;9.22;nan;100277.72;4997514;28;20069;-72
2023/03/15 03:34:33;;;;;;;21.58;1.77;;;;;;;9.23;nan;100289.09;4997192;28;20045;-72
2023/03/15 03:36:59;;;;;;;19.57;1.53;;;;;;;9.25;nan;100280.34;4997556;28;20038;-71
2023/03/15 03:39:24;;;;;;;15.57;1.63;;;;;;;9.29;nan;100279.47;5002880;28;20079;-71
2023/03/15 03:41:50;;;;;;;26.70;2.97;;;;;;;9.32;nan;100276.84;4999068;28;20056;-71
2023/03/15 03:44:15;;;;;;;23.03;1.80;;;;;;;9.36;nan;100285.63;4997060;28;20478;-71
2023/03/15 03:46:41;;;;;;;20.80;2.20;;;;;;;9.37;nan;100281.22;4997427;28;20038;-71
2023/03/15 03:49:06;;;;;;;22.17;2.10;;;;;;;9.42;nan;100290.03;4997318;28;20542;-71
2023/03/15 03:51:33;;;;;;;35.23;2.37;;;;;;;9.48;nan;100295.28;4997257;28;20030;-73
2023/03/15 03:53:59;;;;;;;20.30;1.73;;;;;;;9.55;nan;100298.78;4996960;28;20030;-71
2023/03/15 03:56:25;;;;;;;29.35;2.28;;;;;;;9.60;nan;100294.41;4988540;28;20034;-73
2023/03/15 03:58:51;;;;;;;32.90;2.03;;;;;;;9.64;nan;100296.16;4998656;28;20034;-73
2023/03/15 04:01:17;;;;;;;20.33;1.80;;;;;;;9.69;nan;100297.03;4998165;28;20078;-74
2023/03/15 04:03:43;;;;;;;23.08;2.60;;;;;;;9.73;nan;100295.28;4995312;28;20034;-74
2023/03/15 04:06:08;;;;;;;24.10;1.90;;;;;;;9.77;nan;100300.56;5001419;28;20034;-74
2023/03/15 04:08:34;;;;;;;26.17;1.90;;;;;;;9.82;nan;100302.28;5000531;28;20034;-73
2023/03/15 04:11:02;;;;;;;16.83;1.70;;;;;;;9.84;nan;100303.16;5001316;28;20037;-73
2023/03/15 04:13:28;;;;;;;19.67;1.58;;;;;;;9.87;nan;100309.28;5001127;28;20037;-73
2023/03/15 04:15:56;;;;;;;21.35;1.58;;;;;;;9.89;nan;100312.81;5004873;28;20035;-73
2023/03/15 04:18:22;;;;;;;26.73;1.92;;;;;;;9.93;nan;100308.41;4984982;28;20035;-73
2023/03/15 04:20:48;;;;;;;24.47;1.50;;;;;;;9.96;nan;100316.28;4981736;28;20034;-73
2023/03/15 04:23:19;;;;;;;19.27;1.42;;;;;;;9.97;nan;100320.69;4980035;28;20034;-74
2023/03/15 04:25:48;;;;;;;15.60;1.70;;;;;;;9.98;nan;100319.81;4981371;28;20026;-73
2023/03/15 04:28:14;;;;;;;23.80;2.00;;;;;;;10.01;nan;100325.09;4981631;28;20022;-74
2023/03/15 04:30:41;;;;;;;22.73;1.60;;;;;;;10.01;nan;100326.81;4990067;28;20030;-73
2023/03/15 04:33:08;;;;;;;23.08;1.70;;;;;;;10.03;nan;100325.06;5000621;28;20085;-73
2023/03/15 04:35:36;;;;;;;28.85;1.73;;;;;;;10.03;nan;100320.69;5000772;28;20029;-74
2023/03/15 04:38:02;;;;;;;21.05;1.90;;;;;;;10.04;nan;100329.44;5000515;28;20118;-74
2023/03/15 04:40:29;;;;;;;23.05;1.75;;;;;;;10.05;nan;100328.56;5009384;28;20038;-73
2023/03/15 04:42:55;;;;;;;24.40;2.13;;;;;;;10.07;nan;100321.56;4999497;28;20034;-73
2023/03/15 04:45:26;;;;;;;19.63;2.28;;;;;;;10.08;nan;100325.06;5000519;28;20398;-73
2023/03/15 04:47:52;;;;;;;14.82;2.40;;;;;;;10.09;nan;100321.56;4999562;28;20510;-73
2023/03/15 04:50:18;;;;;;;24.17;2.15;;;;;;;10.11;nan;100317.16;5000331;28;20053;-73
2023/03/15 04:52:43;;;;;;;17.05;1.50;;;;;;;10.11;nan;100322.44;5000187;28;20089;-73
2023/03/15 04:55:09;;;;;;;17.67;1.87;;;;;;;10.11;nan;100330.34;5000315;28;20030;-71
2023/03/15 04:57:35;;;;;;;16.35;1.35;;;;;;;10.15;nan;100334.72;5003863;28;20038;-73
2023/03/15 05:00:01;;;;;;;24.13;1.70;;;;;;;10.16;nan;100337.34;5000947;28;20062;-73
2023/03/15 05:02:26;;;;;;;22.73;1.83;;;;;;;10.20;nan;100338.19;5000137;28;20082;-73
2023/03/15 05:04:52;;;;;;;20.80;1.30;;;;;;;10.23;nan;100337.34;4993458;28;20030;-73
2023/03/15 05:07:17;;;;;;;29.00;2.10;;;;;;;10.26;nan;100342.59;5000000;28;20030;-73
2023/03/15 05:09:45;;;;;;;22.17;1.33;;;;;;;10.28;nan;100344.34;4998443;28;20033;-74
2023/03/15 05:12:12;;;;;;;21.38;1.50;;;;;;;10.29;nan;100340.84;4999146;28;20124;-73
2023/03/15 05:14:37;;;;;;;25.87;1.70;;;;;;;10.27;nan;100344.34;5000250;28;20101;-73
2023/03/15 05:17:03;;;;;;;24.08;1.45;;;;;;;10.21;nan;100339.94;5001404;28;20053;-73
2023/03/15 05:19:32;;;;;;;20.27;1.45;;;;;;;10.22;nan;100341.72;5000237;28;20038;-73
2023/03/15 05:21:58;;;;;;;24.73;1.80;;;;;;;10.19;nan;100341.72;5000028;28;20125;-73
2023/03/15 05:24:23;;;;;;;12.75;1.40;;;;;;;10.18;nan;100347.84;4999626;28;20102;-73
2023/03/15 05:26:49;;;;;;;16.97;1.30;;;;;;;10.20;nan;100349.63;4999607;28;20034;-73
2023/03/15 05:29:14;;;;;;;22.37;1.60;;;;;;;10.23;nan;100358.38;5000091;28;20026;-72
2023/03/15 05:31:40;;;;;;;17.40;1.90;;;;;;;10.26;nan;100358.38;4998265;28;20045;-72
2023/03/15 05:34:06;;;;;;;16.30;1.30;;;;;;;10.22;nan;100341.72;4999748;28;20497;-71
2023/03/15 05:36:33;;;;;;;20.37;1.53;;;;;;;10.22;nan;100356.63;4994941;28;20022;-73
2023/03/15 05:38:59;;;;;;;19.10;1.70;;;;;;;10.23;nan;100351.34;4997988;28;20057;-74
2023/03/15 05:41:24;;;;;;;22.40;1.40;;;;;;;10.23;nan;100359.25;5002436;28;20026;-74
2023/03/15 05:43:50;;;;;;;18.20;1.50;;;;;;;10.21;nan;100358.38;4999516;28;20047;-73
2023/03/15 05:46:16;;;;;;;19.27;1.98;;;;;;;10.18;nan;100351.38;4999316;28;20030;-73
2023/03/15 05:48:42;;;;;;;18.30;1.60;;;;;;;10.17;nan;100340.84;4999664;28;20398;-73
2023/03/15 05:51:07;;;;;;;20.97;1.90;;;;;;;10.12;nan;100348.72;4998044;28;20030;-73
2023/03/15 05:53:33;;;;;;;21.77;1.50;;;;;;;10.07;nan;100347.00;4997877;28;20030;-73
2023/03/15 05:55:58;;;;;;;17.42;1.55;;;;;;;10.00;nan;100352.25;4999246;28;20494;-73
2023/03/15 05:58:24;;;;;;;22.83;1.50;;;;;;;9.95;nan;100348.75;5002946;28;20042;-73
2023/03/15 06:00:49;;;;;;;17.83;1.50;;;;;;;9.88;nan;100360.16;5000958;28;20054;-73
2023/03/15 06:03:15;;;;;;;19.77;1.90;;;;;;;9.86;nan;100361.91;4994686;28;20082;-73
2023/03/15 06:05:41;;;;;;;16.53;1.40;;;;;;;9.87;nan;100369.78;4998155;28;20386;-73
2023/03/15 06:08:06;;;;;;;25.13;2.15;;;;;;;9.91;nan;100371.56;4999029;28;20109;-73
2023/03/15 06:10:32;;;;;;;16.20;1.90;;;;;;;9.94;nan;100365.41;4993427;28;20499;-73
2023/03/15 06:12:58;;;;;;;28.35;2.67;;;;;;;9.98;nan;100372.41;4979831;28;20482;-73
2023/03/15 06:15:24;;;;;;;17.88;1.73;;;;;;;10.05;nan;100370.66;4990052;28;20112;-73
2023/03/15 06:17:49;;;;;;;22.87;2.00;;;;;;;10.11;nan;100380.31;4991826;28;20038;-73
2023/03/15 06:20:15;;;;;;;23.37;1.87;;;;;;;10.16;nan;100378.56;4998875;28;20030;-73
2023/03/15 06:22:40;;;;;;;24.27;2.63;;;;;;;10.23;nan;100384.72;4999114;28;20076;-73
2023/03/15 06:25:06;;;;;;;19.60;1.63;;;;;;;10.31;nan;100386.47;4998460;28;20281;-72
2023/03/15 06:27:31;;;;;;;25.92;2.17;;;;;;;10.38;nan;100389.97;4998535;28;20026;-73
2023/03/15 06:29:57;;;;;;;21.73;1.80;;;;;;;10.44;nan;100386.47;4998754;28;20027;-73
2023/03/15 06:32:24;;;;;;;18.33;1.60;;;;;;;10.48;nan;100385.56;4997370;28;20026;-73
2023/03/15 06:34:49;;;;;;;17.70;2.28;;;;;;;10.54;nan;100385.59;4998274;28;20053;-73
2023/03/15 06:37:15;;;;;;;16.60;1.43;;;;;;;10.61;nan;100392.56;4998596;28;20498;-73
2023/03/15 06:39:40;;;;;;;19.20;1.40;;;;;;;10.68;nan;100392.56;5004140;28;20026;-73
2023/03/15 06:42:07;;;;;;;18.75;1.92;;;;;;;10.76;nan;100388.16;4999430;28;20530;-73
2023/03/15 06:44:34;;;;;;;23.45;2.10;;;;;;;10.81;nan;100394.28;4996756;28;20038;-73
2023/03/15 06:47:02;;;;;;;17.80;2.53;;;;;;;10.87;nan;100389.00;4998394;28;20478;-73
2023/03/15 06:49:28;;;;;;;17.65;1.52;;;;;;;10.95;nan;100395.97;4998261;28;20027;-73
2023/03/15 06:51:53;;;;;;;18.30;1.50;;;;;;;10.98;nan;100396.00;4998383;28;20040;-72
2023/03/15 06:54:18;;;;;;;20.97;1.70;;;;;;;11.04;nan;100406.50;4997773;28;20057;-72
2023/03/15 06:56:44;;;;;;;19.73;1.97;;;;;;;11.05;nan;100405.63;5000088;28;20090;-73
2023/03/15 06:59:10;;;;;;;21.57;1.57;;;;;;;11.14;nan;100415.25;5000295;28;20038;-73
2023/03/15 07:01:35;;;;;;;18.80;1.40;;;;;;;11.15;nan;100409.97;5000392;28;20050;-72
2023/03/15 07:04:01;;;;;;;16.33;1.63;;;;;;;11.23;nan;100406.44;4992677;28;20040;-72
2023/03/15 07:06:27;;;;;;;18.17;2.67;;;;;;;11.28;nan;100402.00;5000789;28;20108;-72
2023/03/15 07:08:52;;;;;;;14.57;1.75;;;;;;;11.35;nan;100395.81;4999112;28;20030;-71
2023/03/15 07:11:19;;;;;;;16.23;1.75;;;;;;;11.52;nan;100389.59;5008873;28;20038;-72
2023/03/15 07:13:44;;;;;;;19.52;1.52;;;;;;;11.72;nan;100395.63;4999867;28;20037;-71
2023/03/15 07:16:10;;;;;;;18.03;1.97;;;;;;;12.03;nan;100395.41;5003875;28;20030;-71
2023/03/15 07:18:35;;;;;;;15.03;1.43;;;;;;;12.41;nan;100381.88;5006196;28;20037;-73
2023/03/15 07:21:02;;;;;;;15.90;1.70;;;;;;;12.63;nan;100379.91;5003299;28;20030;-71
2023/03/15 07:23:29;;;;;;;18.95;1.67;;;;;;;12.69;nan;100373.69;5001465;28;20045;-72
2023/03/15 07:25:59;;;;;;;18.53;1.57;;;;;;;12.91;nan;100371.66;4999289;28;20080;-72
2023/03/15 07:28:26;;;;;;;12.25;1.60;;;;;;;13.15;nan;100366.94;4994291;28;20026;-71
2023/03/15 07:31:01;;;;;;;17.73;1.77;;;;;;;13.78;nan;100358.13;4996485;28;20061;-72
2023/03/15 07:33:29;;;;;;;17.67;1.48;;;;;;;14.51;nan;100353.34;4987702;28;20025;-71
2023/03/15 07:35:55;;;;;;;16.67;1.30;;;;;;;15.54;nan;100345.94;5006546;28;20046;-76
2023/03/15 07:38:48;;;;;;;15.70;1.73;;;;;;;17.07;nan;100341.97;4989341;28;20062;-78
2023/03/15 07:41:57;;;;;;;11.82;1.30;;;;;;;18.51;nan;100338.22;5002841;28;20030;-73
2023/03/15 07:44:23;;;;;;;11.35;1.20;;;;;;;19.98;nan;100336.19;4989787;28;20057;-74
2023/03/15 07:46:49;;;;;;;13.80;1.50;;;;;;;20.10;nan;100333.00;4997865;28;20191;-75
2023/03/15 07:49:15;;;;;;;14.03;1.70;;;;;;;20.46;nan;100334.97;4998014;28;20033;-73
2023/03/15 07:51:41;;;;;;;14.13;1.60;;;;;;;20.08;nan;100327.69;4997532;28;20034;-74
2023/03/15 07:54:07;;;;;;;10.00;1.38;;;;;;;19.39;nan;100342.06;4996761;28;20034;-73
2023/03/15 07:56:32;;;;;;;15.97;1.67;;;;;;;18.60;nan;100356.56;4997657;28;20027;-73
2023/03/15 07:58:58;;;;;;;12.53;1.43;;;;;;;18.04;nan;100357.59;5001107;28;20037;-73
2023/03/15 08:01:23;;;;;;;14.95;1.67;;;;;;;17.63;nan;100358.00;4997801;28;20133;-73
2023/03/15 08:03:57;;;;;;;14.43;1.27;;;;;;;18.15;nan;100354.56;4994083;28;20042;-73
2023/03/15 08:06:23;;;;;;;11.43;1.60;;;;;;;18.30;nan;100358.50;5005635;28;20097;-74
2023/03/15 08:09:02;;;;;;;15.77;1.67;;;;;;;17.95;nan;100358.75;4996177;28;20034;-73
2023/03/15 08:11:28;;;;;;;14.73;1.48;;;;;;;17.63;nan;100361.56;4997646;28;20037;-73
2023/03/15 08:13:53;;;;;;;13.23;1.53;;;;;;;17.52;nan;100370.81;4997565;28;20117;-74
2023/03/15 08:16:18;;;;;;;15.53;1.33;;;;;;;17.26;nan;100369.81;5000070;28;20035;-73
2023/03/15 08:18:44;;;;;;;11.93;1.20;;;;;;;17.02;nan;100385.59;4991187;28;20069;-72
2023/03/15 08:21:09;;;;;;;11.40;1.40;;;;;;;16.84;nan;100382.50;4993970;28;20030;-71
2023/03/15 08:23:35;;;;;;;11.43;1.65;;;;;;;16.58;nan;100386.75;4991757;28;20088;-72
2023/03/15 08:26:00;;;;;;;13.60;1.60;;;;;;;16.33;nan;100386.53;4994668;28;20027;-73
2023/03/15 08:28:25;;;;;;;12.43;1.47;;;;;;;16.55;nan;100391.28;4991101;28;20033;-71
2023/03/15 08:30:51;;;;;;;11.13;1.50;;;;;;;16.45;nan;100393.31;4993327;28;20033;-73
2023/03/15 08:33:16;;;;;;;14.33;1.40;;;;;;;16.27;nan;100395.53;4990066;28;20114;-72
2023/03/15 08:35:41;;;;;;;10.80;1.20;;;;;;;17.00;nan;100392.72;4991683;28;20030;-72
2023/03/15 08:38:08;;;;;;;12.53;1.23;;;;;;;17.27;nan;100395.53;4987007;28;20042;-72
2023/03/15 08:40:33;;;;;;;14.13;1.48;;;;;;;17.34;nan;100405.91;4996142;28;20064;-72
2023/03/15 08:42:59;;;;;;;11.70;1.13;;;;;;;17.22;nan;100407.16;4990097;28;20514;-72
2023/03/15 08:45:25;;;;;;;11.67;1.40;;;;;;;16.91;nan;100417.78;4992747;28;20058;-72
2023/03/15 08:47:57;;;;;;;15.93;1.40;;;;;;;16.83;nan;100410.03;4987808;28;20097;-72
2023/03/15 08:50:24;;;;;;;13.68;1.40;;;;;;;16.80;nan;100407.44;4991932;28;20034;-72
2023/03/15 08:52:50;;;;;;;13.40;1.67;;;;;;;16.70;nan;100405.94;4991651;28;20042;-72
2023/03/15 08:55:15;;;;;;;9.53;1.40;;;;;;;16.64;nan;100410.53;4991808;28;20037;-72
2023/03/15 08:57:41;;;;;;;9.30;1.10;;;;;;;16.54;nan;100421.44;4996715;28;20054;-72
2023/03/15 09:00:08;;;;;;;9.93;1.27;;;;;;;16.35;nan;100420.13;4996350;28;20022;-72
2023/03/15 09:02:34;;;;;;;12.60;1.55;;;;;;;16.05;nan;100420.00;4999886;28;20049;-72
2023/03/15 09:04:59;;;;;;;10.10;1.17;;;;;;;15.88;nan;100419.50;5001010;28;20030;-71
2023/03/15 09:07:25;;;;;;;13.57;1.63;;;;;;;15.76;nan;100418.84;4999205;28;20015;-74
2023/03/15 09:09:53;;;;;;;13.70;1.53;;;;;;;15.94;nan;100414.06;4999037;28;20033;-72
2023/03/15 09:12:19;;;;;;;10.10;1.50;;;;;;;16.33;nan;100410.44;4986289;28;20449;-72
2023/03/15 09:14:46;;;;;;;9.52;1.02;;;;;;;16.82;nan;100410.06;4999152;28;20049;-71
2023/03/15 09:17:11;;;;;;;17.57;1.33;;;;;;;17.28;nan;100406.09;4995566;28;20031;-71
2023/03/15 09:19:36;;;;;;;9.88;1.40;;;;;;;17.99;nan;100408.38;4986547;28;20038;-73
2023/03/15 09:22:02;;;;;;;8.77;1.30;;;;;;;17.90;nan;100419.31;4988174;28;20093;-72
2023/03/15 09:24:28;;;;;;;12.23;1.67;;;;;;;17.65;nan;100417.41;4992970;28;20109;-72
2023/03/15 09:26:53;;;;;;;7.17;1.13;;;;;;;17.42;nan;100415.47;4986759;28;20505;-71
2023/03/15 09:29:18;;;;;;;11.97;1.40;;;;;;;17.27;nan;100404.34;4999685;28;20513;-72
2023/03/15 09:31:44;;;;;;;12.03;1.60;;;;;;;17.25;nan;100418.66;4999714;28;20623;-65
2023/03/15 09:34:09;;;;;;;8.67;1.10;;;;;;;17.44;nan;100419.81;4992741;28;20038;-65
2023/03/15 09:36:35;;;;;;;11.95;1.27;;;;;;;17.93;nan;100404.09;4999565;28;20026;-65
2023/03/15 09:39:00;;;;;;;11.30;1.10;;;;;;;18.36;nan;100412.50;5005523;28;20062;-67
2023/03/15 09:42:06;;;;;;;7.13;1.03;;;;;;;18.31;nan;100408.22;5001741;28;20121;-65
2023/03/15 09:44:47;;;;;;;8.18;1.17;;;;;;;18.58;nan;100411.75;4958710;29;20106;-65
2023/03/15 09:47:24;;;;;;;7.43;1.00;;;;;;;19.64;nan;100407.88;4952581;29;20043;-65
2023/03/15 09:49:51;;;;;;;7.63;1.17;;;;;;;20.97;nan;100405.94;4973148;28;20081;-66
2023/03/15 09:52:31;;;;;;;8.03;1.50;;;;;;;23.21;nan;100404.72;4985722;28;20070;-65
2023/03/15 09:54:59;;;;;;;8.63;1.10;;;;;;;25.49;nan;100382.38;4990668;28;20064;-65
2023/03/15 09:57:52;;;;;;;7.60;1.10;;;;;;;25.54;nan;100390.16;4995562;28;20114;-66
2023/03/15 10:00:33;;;;;;;8.30;1.33;;;;;;;24.25;nan;100391.78;5001009;28;20375;-66
2023/03/15 10:03:02;;;;;;;14.45;1.70;;;;;;;23.27;nan;100402.66;4996840;28;20062;-69
2023/03/15 10:05:39;;;;;;;6.07;1.00;;;;;;;22.25;nan;100412.38;4985449;28;20054;-70
2023/03/15 10:08:13;;;;;;;6.18;0.80;;;;;;;21.32;nan;100419.50;4999098;28;20498;-69
2023/03/15 10:10:59;;;;;;;9.02;0.80;;;;;;;20.53;nan;100431.88;4998773;28;20034;-69
2023/03/15 10:13:32;;;;;;;5.28;0.77;;;;;;;19.91;nan;100432.66;4998927;28;20038;-70
2023/03/15 10:16:28;;;;;;;7.43;0.90;;;;;;;19.36;nan;100436.53;5002694;28;20406;-69
2023/03/15 10:19:14;;;;;;;6.40;0.70;;;;;;;18.96;nan;100443.31;4998699;28;20032;-69
2023/03/15 10:21:51;;;;;;;6.82;0.90;;;;;;;18.65;nan;100453.28;4998658;28;20077;-69
2023/03/15 10:24:38;;;;;;;9.15;0.82;;;;;;;18.42;nan;100447.84;4998672;28;20498;-69
2023/03/15 10:27:39;;;;;;;7.50;0.80;;;;;;;18.00;nan;100450.09;4990721;28;20113;-69
2023/03/15 10:30:26;;;;;;;7.43;0.93;;;;;;;17.88;nan;100454.00;4966348;28;20018;-69
2023/03/15 10:32:57;;;;;;;4.90;0.80;;;;;;;17.98;nan;100454.59;4998996;28;20029;-69
2023/03/15 10:35:22;;;;;;;6.65;0.88;;;;;;;17.96;nan;100448.41;4998756;28;20096;-69
2023/03/15 10:37:48;;;;;;;9.40;1.13;;;;;;;18.11;nan;100451.53;4997123;28;20901;-69
2023/03/15 10:40:17;;;;;;;6.22;0.70;;;;;;;18.41;nan;100451.44;5005665;28;20033;-69
2023/03/15 10:42:44;;;;;;;8.33;0.90;;;;;;;18.39;nan;100443.53;5000561;28;20487;-69
2023/03/15 10:45:20;;;;;;;6.10;0.82;;;;;;;18.45;nan;100447.78;4998390;28;20023;-69
2023/03/15 10:47:46;;;;;;;6.47;0.90;;;;;;;18.61;nan;100451.63;4996953;28;20034;-69
2023/03/15 10:50:28;;;;;;;6.47;0.90;;;;;;;18.50;nan;100436.00;4998277;28;20026;-69
2023/03/15 10:52:56;;;;;;;9.35;0.85;;;;;;;18.71;nan;100438.84;5013362;28;20117;-69
2023/03/15 10:55:41;;;;;;;9.87;1.20;;;;;;;19.13;nan;100437.38;4984386;28;20061;-69
2023/03/15 10:58:19;;;;;;;5.90;0.93;;;;;;;19.69;nan;100424.59;4995184;28;20049;-69
2023/03/15 11:00:51;;;;;;;5.20;0.85;;;;;;;19.88;nan;100421.16;5000069;28;20050;-70
2023/03/15 11:03:23;;;;;;;5.55;0.75;;;;;;;19.99;nan;100418.97;4993452;28;20045;-70
2023/03/15 11:05:54;;;;;;;10.60;1.38;;;;;;;20.11;nan;100406.03;5010811;28;20117;-70
2023/03/15 11:08:23;;;;;;;7.00;1.23;;;;;;;21.80;nan;100402.06;4997831;28;20430;-70
2023/03/15 11:10:58;;;;;;;4.88;0.82;;;;;;;23.95;nan;100377.31;4998356;28;20036;-70
2023/03/15 11:13:26;;;;;;;6.10;1.10;;;;;;;26.12;nan;100364.78;4997390;28;20498;-71
2023/03/15 11:16:02;;;;;;;6.75;0.90;;;;;;;26.71;nan;100366.19;5001383;28;20383;-71
2023/03/15 11:18:34;;;;;;;7.05;1.30;;;;;;;27.42;nan;100358.44;4997970;28;20398;-71
2023/03/15 11:21:02;;;;;;;5.03;1.20;;;;;;;28.69;nan;100333.56;4997937;28;20026;-73
2023/03/15 11:23:33;;;;;;;6.72;1.40;;;;;;;30.40;nan;100335.84;4996371;28;20027;-74
2023/03/15 11:25:59;;;;;;;8.15;1.60;;;;;;;30.94;nan;100331.16;4996487;28;20467;-71
2023/03/15 11:28:31;;;;;;;6.00;1.30;;;;;;;31.64;nan;100325.75;4980375;28;20406;-72
2023/03/15 11:31:03;;;;;;;5.28;1.30;;;;;;;32.21;nan;100311.38;4985073;28;20035;-72
2023/03/15 11:33:44;;;;;;;4.97;1.40;;;;;;;32.90;nan;100316.66;4992743;28;20096;-72
2023/03/15 11:36:22;;;;;;;4.10;1.20;;;;;;;33.81;nan;100307.75;4991723;28;20053;-71
2023/03/15 11:38:48;;;;;;;5.60;1.00;;;;;;;34.18;nan;100310.28;5005232;28;20026;-72
2023/03/15 11:41:22;;;;;;;4.85;1.05;;;;;;;32.76;nan;100311.69;4987676;28;20406;-71
2023/03/15 11:44:15;;;;;;;4.05;1.63;;;;;;;32.20;nan;100322.44;4996122;28;20034;-71